createdAt,value
2018-02-16T00:02:25.229Z,31.10
2018-02-16T00:04:52.642Z,26.27
2018-02-16T00:07:20.089Z,26.90
2018-02-16T00:09:47.525Z,30.73
2018-02-16T00:12:14.945Z,26.53
2018-02-16T00:14:42.392Z,23.50
2018-02-16T00:17:09.825Z,23.52
2018-02-16T00:19:37.269Z,25.40
2018-02-16T00:22:04.706Z,25.77
2018-02-16T00:24:32.128Z,26.85
2018-02-16T00:26:59.581Z,29.00
2018-02-16T00:29:27.067Z,26.40
2018-02-16T00:31:54.479Z,28.10
2018-02-16T00:34:21.919Z,25.13
2018-02-16T00:36:49.343Z,30.30
2018-02-16T00:39:16.792Z,29.27
2018-02-16T00:41:44.224Z,31.90
2018-02-16T00:44:11.674Z,29.67
2018-02-16T00:46:39.131Z,30.12
2018-02-16T00:49:06.557Z,27.33
2018-02-16T00:51:33.980Z,25.07
2018-02-16T00:54:01.440Z,26.75
2018-02-16T00:56:28.884Z,28.33
2018-02-16T00:58:56.308Z,27.03
2018-02-16T01:01:23.748Z,30.10
2018-02-16T01:03:51.186Z,28.07
2018-02-16T01:06:18.616Z,27.50
2018-02-16T01:08:46.029Z,24.83
2018-02-16T01:11:13.457Z,25.80
2018-02-16T01:13:40.880Z,28.63
2018-02-16T01:16:08.303Z,25.92
2018-02-16T01:18:35.765Z,26.20
2018-02-16T01:21:03.172Z,26.80
2018-02-16T01:23:30.618Z,26.85
2018-02-16T01:25:58.074Z,28.10
2018-02-16T01:28:25.547Z,26.23
2018-02-16T01:30:52.961Z,30.20
2018-02-16T01:33:20.418Z,28.05
2018-02-16T01:35:47.877Z,25.73
2018-02-16T01:38:15.301Z,26.25
2018-02-16T01:40:43.496Z,27.83
2018-02-16T01:43:10.953Z,24.65
2018-02-16T01:45:38.384Z,25.75
2018-02-16T01:48:05.813Z,24.92
2018-02-16T01:50:33.265Z,25.33
2018-02-16T01:53:00.688Z,26.77
2018-02-16T01:55:28.137Z,28.77
2018-02-16T01:57:55.588Z,26.42
2018-02-16T02:00:23.045Z,28.77
2018-02-16T02:02:50.485Z,28.60
2018-02-16T02:05:17.918Z,26.08
2018-02-16T02:07:45.350Z,28.17
2018-02-16T02:10:12.784Z,26.98
2018-02-16T02:12:40.223Z,27.52
2018-02-16T02:15:07.724Z,28.17
2018-02-16T02:17:35.136Z,26.70
2018-02-16T02:20:02.594Z,27.65
2018-02-16T02:22:30.008Z,26.58
2018-02-16T02:24:57.433Z,29.30
2018-02-16T02:27:24.869Z,28.83
2018-02-16T02:29:52.308Z,29.23
2018-02-16T02:32:19.748Z,29.58
2018-02-16T02:34:47.219Z,29.90
2018-02-16T02:37:14.691Z,30.12
2018-02-16T02:39:42.121Z,30.08
2018-02-16T02:42:09.627Z,28.90
2018-02-16T02:44:37.110Z,29.65
2018-02-16T02:47:04.970Z,26.92
2018-02-16T02:49:32.417Z,27.33
2018-02-16T02:51:59.856Z,28.55
2018-02-16T02:54:27.333Z,26.83
2018-02-16T02:56:54.773Z,27.62
2018-02-16T02:59:22.185Z,29.40
2018-02-16T03:01:49.617Z,26.75
2018-02-16T03:04:17.048Z,25.10
2018-02-16T03:06:44.501Z,25.00
2018-02-16T03:09:11.933Z,26.95
2018-02-16T03:11:39.389Z,25.77
2018-02-16T03:14:06.809Z,27.55
2018-02-16T03:16:34.232Z,28.27
2018-02-16T03:19:01.677Z,27.20
2018-02-16T03:21:29.093Z,26.95
2018-02-16T03:23:56.508Z,27.42
2018-02-16T03:26:23.948Z,26.70
2018-02-16T03:28:51.397Z,26.35
2018-02-16T03:31:18.830Z,25.73
2018-02-16T03:33:46.320Z,25.75
2018-02-16T03:36:13.745Z,25.67
2018-02-16T03:38:41.158Z,26.77
2018-02-16T03:41:08.608Z,25.55
2018-02-16T03:43:36.063Z,25.73
2018-02-16T03:46:03.489Z,27.23
2018-02-16T03:48:30.966Z,28.02
2018-02-16T03:50:58.417Z,27.25
2018-02-16T03:53:25.820Z,25.90
2018-02-16T03:55:53.265Z,27.30
2018-02-16T03:58:20.688Z,24.17
2018-02-16T04:00:48.118Z,25.77
2018-02-16T04:03:15.553Z,25.25
2018-02-16T04:05:43.034Z,25.23
2018-02-16T04:08:10.457Z,26.37
2018-02-16T04:10:37.955Z,26.95
2018-02-16T04:13:05.404Z,27.37
2018-02-16T04:15:32.836Z,26.23
2018-02-16T04:18:00.300Z,27.55
2018-02-16T04:20:27.716Z,25.45
2018-02-16T04:22:55.140Z,25.05
2018-02-16T04:25:22.574Z,26.42
2018-02-16T04:27:50.005Z,27.15
2018-02-16T04:30:17.443Z,25.95
2018-02-16T04:32:44.890Z,24.55
2018-02-16T04:35:12.312Z,26.15
2018-02-16T04:37:39.767Z,25.27
2018-02-16T04:40:07.207Z,23.62
2018-02-16T04:42:34.642Z,23.70
2018-02-16T04:45:02.073Z,23.95
2018-02-16T04:47:30.300Z,27.42
2018-02-16T04:49:57.720Z,25.20
2018-02-16T04:52:25.148Z,25.42
2018-02-16T04:54:52.596Z,26.02
2018-02-16T04:57:20.030Z,27.02
2018-02-16T04:59:47.476Z,25.70
2018-02-16T05:02:14.912Z,26.45
2018-02-16T05:04:42.337Z,26.62
2018-02-16T05:07:10.732Z,26.23
2018-02-16T05:09:38.157Z,25.42
2018-02-16T05:12:05.656Z,25.37
2018-02-16T05:14:33.210Z,25.65
2018-02-16T05:17:00.681Z,26.52
2018-02-16T05:19:28.156Z,24.33
2018-02-16T05:21:55.598Z,26.15
2018-02-16T05:24:23.278Z,25.45
2018-02-16T05:26:50.697Z,26.90
2018-02-16T05:29:18.153Z,25.85
2018-02-16T05:31:45.985Z,25.33
2018-02-16T05:34:14.313Z,27.58
2018-02-16T05:36:41.729Z,26.20
2018-02-16T05:39:09.176Z,25.15
2018-02-16T05:41:36.601Z,26.55
2018-02-16T05:44:04.012Z,27.10
2018-02-16T05:46:31.479Z,22.98
2018-02-16T05:48:58.900Z,23.52
2018-02-16T05:51:26.321Z,24.27
2018-02-16T05:53:53.756Z,23.70
2018-02-16T05:56:21.245Z,23.08
2018-02-16T05:58:48.668Z,22.75
2018-02-16T06:01:17.400Z,23.62
2018-02-16T06:03:44.959Z,22.70
2018-02-16T06:06:12.390Z,23.40
2018-02-16T06:08:39.811Z,23.08
2018-02-16T06:11:07.240Z,24.92
2018-02-16T06:13:34.669Z,24.52
2018-02-16T06:16:02.110Z,27.20
2018-02-16T06:18:29.524Z,23.20
2018-02-16T06:20:56.951Z,24.08
2018-02-16T06:23:24.370Z,24.37
2018-02-16T06:25:51.848Z,25.70
2018-02-16T06:28:19.277Z,25.62
2018-02-16T06:30:46.721Z,24.40
2018-02-16T06:33:14.144Z,26.00
2018-02-16T06:35:41.592Z,25.95
2018-02-16T06:38:09.038Z,26.20
2018-02-16T06:40:36.476Z,26.62
2018-02-16T06:43:03.900Z,29.90
2018-02-16T06:45:31.376Z,28.38
2018-02-16T06:47:58.804Z,27.25
2018-02-16T06:50:26.224Z,28.65
2018-02-16T06:52:53.664Z,26.10
2018-02-16T06:55:21.096Z,25.00
2018-02-16T06:57:48.567Z,27.35
2018-02-16T07:00:15.996Z,27.10
2018-02-16T07:02:43.430Z,26.95
2018-02-16T07:05:10.853Z,27.55
2018-02-16T07:07:38.281Z,26.80
2018-02-16T07:10:05.710Z,27.23
2018-02-16T07:12:33.138Z,26.37
2018-02-16T07:15:00.595Z,27.45
2018-02-16T07:17:28.008Z,26.48
2018-02-16T07:19:55.477Z,25.65
2018-02-16T07:22:22.911Z,27.45
2018-02-16T07:24:50.325Z,24.67
2018-02-16T07:27:17.744Z,26.83
2018-02-16T07:29:45.232Z,26.70
2018-02-16T07:32:12.774Z,26.50
2018-02-16T07:34:40.184Z,27.98
2018-02-16T07:37:08.017Z,28.10
2018-02-16T07:39:35.473Z,28.17
2018-02-16T07:42:02.889Z,27.85
2018-02-16T07:44:30.328Z,28.27
2018-02-16T07:46:57.822Z,26.70
2018-02-16T07:49:25.249Z,27.95
2018-02-16T07:51:52.703Z,29.42
2018-02-16T07:54:20.155Z,27.45
2018-02-16T07:56:47.577Z,28.05
2018-02-16T07:59:15.037Z,26.62
2018-02-16T08:01:42.500Z,27.52
2018-02-16T08:04:09.916Z,29.00
2018-02-16T08:06:37.371Z,26.92
2018-02-16T08:09:04.839Z,29.48
2018-02-16T08:11:32.259Z,28.83
2018-02-16T08:13:59.702Z,29.02
2018-02-16T08:16:27.117Z,29.67
2018-02-16T08:18:54.556Z,30.80
2018-02-16T08:21:22.037Z,31.08
2018-02-16T08:23:49.494Z,30.42
2018-02-16T08:26:16.921Z,30.95
2018-02-16T08:28:44.361Z,31.70
2018-02-16T08:31:11.789Z,31.95
2018-02-16T08:33:39.216Z,31.20
2018-02-16T08:36:06.686Z,29.92
2018-02-16T08:38:34.109Z,30.67
2018-02-16T08:41:01.561Z,29.83
2018-02-16T08:43:29.037Z,31.30
2018-02-16T08:45:56.450Z,30.57
2018-02-16T08:48:24.323Z,28.30
2018-02-16T08:50:51.808Z,29.50
2018-02-16T08:53:19.233Z,27.60
2018-02-16T08:55:46.674Z,30.60
2018-02-16T08:58:14.094Z,27.50
2018-02-16T09:00:41.525Z,29.30
2018-02-16T09:03:08.941Z,27.93
2018-02-16T09:05:36.376Z,27.53
2018-02-16T09:08:03.796Z,29.37
2018-02-16T09:10:31.238Z,30.47
2018-02-16T09:12:58.660Z,28.13
2018-02-16T09:15:26.072Z,28.27
2018-02-16T09:17:53.488Z,27.00
2018-02-16T09:20:20.909Z,27.17
2018-02-16T09:22:48.311Z,25.57
2018-02-16T09:25:15.721Z,25.70
2018-02-16T09:27:43.137Z,24.87
2018-02-16T09:30:10.540Z,23.83
2018-02-16T09:32:37.996Z,24.50
2018-02-16T09:35:05.417Z,24.60
2018-02-16T09:37:33.115Z,23.60
2018-02-16T09:40:00.845Z,24.37
2018-02-16T09:42:28.263Z,23.90
2018-02-16T09:44:55.701Z,23.63
2018-02-16T09:47:23.103Z,24.30
2018-02-16T09:49:50.534Z,22.40
2018-02-16T09:52:17.932Z,21.07
2018-02-16T09:54:45.360Z,23.73
2018-02-16T09:57:13.562Z,23.93
2018-02-16T09:59:40.975Z,24.80
2018-02-16T10:02:08.385Z,24.07
2018-02-16T10:04:35.833Z,23.70
2018-02-16T10:07:03.269Z,24.80
2018-02-16T10:09:30.689Z,21.53
2018-02-16T10:11:58.164Z,22.30
2018-02-16T10:14:25.583Z,22.47
2018-02-16T10:16:53.013Z,22.13
2018-02-16T10:19:20.476Z,22.47
2018-02-16T10:21:47.905Z,22.00
2018-02-16T10:24:15.328Z,19.27
2018-02-16T10:26:42.745Z,21.17
2018-02-16T10:29:10.209Z,19.53
2018-02-16T10:31:37.601Z,16.50
2018-02-16T10:34:05.071Z,17.03
2018-02-16T10:36:32.485Z,16.27
2018-02-16T10:38:59.890Z,16.30
2018-02-16T10:41:27.329Z,15.97
2018-02-16T10:43:54.753Z,14.30
2018-02-16T10:46:22.157Z,14.30
2018-02-16T10:48:49.921Z,15.60
2018-02-16T10:51:17.348Z,13.33
2018-02-16T10:53:44.812Z,13.50
2018-02-16T10:56:12.216Z,14.17
2018-02-16T10:58:39.644Z,13.43
2018-02-16T11:01:12.732Z,14.10
2018-02-16T11:03:40.159Z,12.43
2018-02-16T11:06:18.436Z,13.07
2018-02-16T11:08:51.517Z,12.27
2018-02-16T11:11:18.938Z,12.63
2018-02-16T11:13:46.456Z,12.70
2018-02-16T11:16:13.862Z,12.87
2018-02-16T11:18:41.542Z,12.27
2018-02-16T11:21:08.981Z,12.70
2018-02-16T11:23:36.384Z,12.50
2018-02-16T11:26:03.835Z,12.27
2018-02-16T11:28:31.315Z,12.10
2018-02-16T11:30:58.761Z,13.07
2018-02-16T11:33:26.462Z,13.00
2018-02-16T11:35:53.901Z,12.13
2018-02-16T11:38:21.317Z,11.90
2018-02-16T11:40:48.753Z,12.87
2018-02-16T11:43:16.186Z,11.30
2018-02-16T11:45:44.568Z,11.87
2018-02-16T11:48:12.361Z,12.03
2018-02-16T11:50:39.772Z,12.40
2018-02-16T11:53:07.212Z,10.90
2018-02-16T11:55:34.654Z,12.70
2018-02-16T11:58:02.069Z,10.40
2018-02-16T12:00:29.520Z,11.40
2018-02-16T12:02:57.000Z,9.63
2018-02-16T12:05:24.444Z,10.43
2018-02-16T12:07:51.870Z,10.03
2018-02-16T12:10:19.288Z,10.23
2018-02-16T12:12:46.721Z,10.23
2018-02-16T12:15:14.137Z,10.00
2018-02-16T12:17:41.957Z,10.23
2018-02-16T12:20:09.375Z,10.57
2018-02-16T12:22:36.832Z,10.53
2018-02-16T12:25:04.290Z,10.50
2018-02-16T12:27:32.529Z,10.60
2018-02-16T12:29:59.959Z,11.23
2018-02-16T12:32:28.230Z,11.37
2018-02-16T12:34:55.639Z,10.50
2018-02-16T12:37:23.374Z,11.53
2018-02-16T12:39:51.650Z,11.50
2018-02-16T12:42:19.082Z,11.00
2018-02-16T12:44:46.542Z,11.10
2018-02-16T12:47:14.457Z,11.13
2018-02-16T12:49:41.864Z,10.30
2018-02-16T12:52:09.317Z,10.03
2018-02-16T12:54:37.127Z,10.60
2018-02-16T12:57:04.892Z,11.07
2018-02-16T12:59:32.310Z,10.90
2018-02-16T13:01:59.753Z,11.40
2018-02-16T13:04:27.193Z,11.40
2018-02-16T13:06:55.790Z,12.10
2018-02-16T13:09:23.232Z,10.93
2018-02-16T13:11:50.690Z,10.33
2018-02-16T13:14:18.336Z,11.57
2018-02-16T13:16:45.815Z,11.07
2018-02-16T13:19:13.273Z,12.47
2018-02-16T13:21:40.705Z,11.57
2018-02-16T13:24:08.120Z,11.70
2018-02-16T13:26:35.534Z,10.80
2018-02-16T13:29:02.957Z,10.40
2018-02-16T13:31:30.456Z,9.80
2018-02-16T13:33:59.264Z,9.90
2018-02-16T13:36:26.709Z,9.30
2018-02-16T13:38:54.180Z,10.03
2018-02-16T13:41:21.640Z,10.37
2018-02-16T13:43:49.066Z,10.77
2018-02-16T13:46:17.389Z,10.50
2018-02-16T13:48:44.850Z,10.30
2018-02-16T13:51:12.277Z,10.60
2018-02-16T13:53:39.753Z,10.40
2018-02-16T13:56:07.169Z,10.13
2018-02-16T13:58:34.604Z,10.80
2018-02-16T14:01:02.103Z,11.47
2018-02-16T14:03:29.618Z,11.07
2018-02-16T14:05:57.057Z,11.70
2018-02-16T14:08:24.550Z,10.20
2018-02-16T14:10:51.994Z,10.37
2018-02-16T14:13:19.410Z,9.90
2018-02-16T14:15:46.868Z,10.47
2018-02-16T14:18:14.316Z,11.17
2018-02-16T14:20:41.787Z,11.30
2018-02-16T14:23:09.472Z,11.13
2018-02-16T14:25:36.885Z,10.33
2018-02-16T14:28:04.332Z,11.20
2018-02-16T14:30:31.798Z,10.90
2018-02-16T14:32:59.212Z,10.20
2018-02-16T14:35:26.632Z,11.73
2018-02-16T14:37:54.114Z,11.73
2018-02-16T14:40:21.517Z,11.07
2018-02-16T14:42:52.116Z,11.20
2018-02-16T14:45:20.177Z,11.00
2018-02-16T14:47:47.608Z,10.90
2018-02-16T14:50:15.041Z,10.57
2018-02-16T14:52:42.488Z,10.70
2018-02-16T14:55:09.926Z,10.07
2018-02-16T14:57:37.352Z,10.20
2018-02-16T15:00:04.798Z,11.30
2018-02-16T15:02:42.321Z,10.30
2018-02-16T15:05:09.775Z,10.50
2018-02-16T15:07:42.888Z,9.03
2018-02-16T15:10:10.297Z,9.47
2018-02-16T15:12:37.728Z,9.27
2018-02-16T15:15:05.144Z,9.70
2018-02-16T15:17:32.566Z,9.80
2018-02-16T15:19:59.984Z,9.40
2018-02-16T15:22:27.384Z,9.60
2018-02-16T15:24:54.820Z,9.17
2018-02-16T15:27:25.014Z,10.30
2018-02-16T15:29:52.449Z,10.37
2018-02-16T15:32:19.908Z,10.27
2018-02-16T15:34:49.405Z,10.00
2018-02-16T15:37:16.849Z,10.53
2018-02-16T15:39:44.331Z,10.77
2018-02-16T15:42:12.945Z,9.90
2018-02-16T15:44:40.367Z,10.00
2018-02-16T15:47:07.796Z,10.40
2018-02-16T15:49:35.687Z,10.30
2018-02-16T15:52:03.228Z,10.50
2018-02-16T15:54:31.114Z,10.10
2018-02-16T15:56:58.584Z,9.93
2018-02-16T15:59:26.009Z,10.57
2018-02-16T16:01:53.732Z,10.67
2018-02-16T16:04:25.062Z,11.00
2018-02-16T16:06:53.334Z,10.10
2018-02-16T16:09:20.757Z,11.97
2018-02-16T16:11:48.192Z,11.37
2018-02-16T16:14:15.645Z,10.10
2018-02-16T16:16:43.083Z,10.20
2018-02-16T16:19:10.498Z,11.40
2018-02-16T16:21:37.929Z,11.10
2018-02-16T16:24:05.420Z,11.00
2018-02-16T16:26:32.835Z,10.10
2018-02-16T16:29:00.274Z,10.40
2018-02-16T16:31:27.691Z,10.53
2018-02-16T16:33:55.159Z,9.83
2018-02-16T16:36:22.569Z,11.00
2018-02-16T16:38:49.988Z,11.60
2018-02-16T16:41:17.428Z,11.30
2018-02-16T16:43:45.306Z,12.20
2018-02-16T16:46:12.729Z,11.27
2018-02-16T16:48:40.285Z,10.47
2018-02-16T16:51:07.704Z,9.97
2018-02-16T16:53:35.117Z,10.87
2018-02-16T16:56:02.525Z,11.23
2018-02-16T16:58:29.988Z,10.60
2018-02-16T17:00:57.381Z,9.93
2018-02-16T17:03:24.793Z,10.80
2018-02-16T17:05:52.244Z,11.50
2018-02-16T17:08:19.665Z,10.50
2018-02-16T17:10:52.869Z,11.33
2018-02-16T17:13:20.272Z,11.90
2018-02-16T17:15:47.776Z,11.27
2018-02-16T17:18:15.461Z,11.60
2018-02-16T17:20:42.872Z,11.77
2018-02-16T17:23:10.320Z,12.43
2018-02-16T17:25:37.732Z,11.50
2018-02-16T17:28:05.152Z,11.07
2018-02-16T17:30:32.576Z,11.00
2018-02-16T17:32:59.997Z,11.20
2018-02-16T17:35:27.418Z,11.07
2018-02-16T17:38:06.294Z,11.30
2018-02-16T17:40:33.744Z,11.80
2018-02-16T17:43:01.167Z,10.87
2018-02-16T17:45:28.586Z,11.40
2018-02-16T17:47:56.022Z,11.90
2018-02-16T17:50:23.434Z,12.30
2018-02-16T17:52:50.850Z,16.37
2018-02-16T17:55:18.268Z,15.83
2018-02-16T17:57:45.696Z,16.70
2018-02-16T18:00:13.149Z,16.47
2018-02-16T18:02:41.488Z,16.60
2018-02-16T18:05:08.906Z,17.40
2018-02-16T18:07:36.629Z,15.67
2018-02-16T18:10:12.264Z,15.13
2018-02-16T18:12:39.705Z,13.07
2018-02-16T18:15:07.121Z,13.33
2018-02-16T18:17:44.249Z,14.13
2018-02-16T18:20:11.673Z,13.27
2018-02-16T18:22:39.088Z,13.90
2018-02-16T18:25:06.517Z,15.70
2018-02-16T18:27:33.926Z,16.27
2018-02-16T18:30:01.329Z,15.80
2018-02-16T18:32:28.771Z,16.13
2018-02-16T18:34:56.209Z,19.90
2018-02-16T18:37:23.628Z,20.30
2018-02-16T18:39:51.045Z,18.60
2018-02-16T18:42:18.449Z,17.80
2018-02-16T18:44:45.892Z,17.60
2018-02-16T18:47:14.148Z,15.90
2018-02-16T18:49:41.585Z,16.03
2018-02-16T18:52:08.997Z,15.90
2018-02-16T18:54:36.448Z,16.90
2018-02-16T18:57:03.879Z,16.43
2018-02-16T18:59:31.281Z,16.90
2018-02-16T19:01:58.697Z,16.37
2018-02-16T19:04:26.122Z,17.73
2018-02-16T19:06:53.608Z,20.50
2018-02-16T19:09:21.133Z,22.70
2018-02-16T19:11:48.532Z,23.77
2018-02-16T19:14:15.941Z,25.80
2018-02-16T19:16:43.360Z,22.27
2018-02-16T19:19:10.791Z,20.03
2018-02-16T19:21:38.945Z,18.70
2018-02-16T19:24:06.366Z,17.40
2018-02-16T19:26:33.784Z,16.63
2018-02-16T19:29:01.293Z,18.13
2018-02-16T19:31:29.058Z,17.00
2018-02-16T19:33:56.468Z,19.10
2018-02-16T19:36:23.918Z,16.40
2018-02-16T19:38:51.340Z,16.60
2018-02-16T19:41:18.748Z,16.40
2018-02-16T19:43:46.175Z,16.37
2018-02-16T19:46:13.621Z,17.40
2018-02-16T19:48:41.065Z,17.60
2018-02-16T19:51:08.532Z,17.53
2018-02-16T19:53:36.259Z,18.62
2018-02-16T19:56:03.693Z,17.08
2018-02-16T19:58:31.123Z,17.42
2018-02-16T20:00:58.549Z,17.13
2018-02-16T20:03:25.980Z,16.43
2018-02-16T20:05:53.396Z,18.05
2018-02-16T20:08:20.836Z,17.08
2018-02-16T20:10:48.250Z,16.77
2018-02-16T20:13:15.666Z,17.30
2018-02-16T20:15:43.475Z,18.20
2018-02-16T20:18:10.967Z,17.40
2018-02-16T20:20:38.361Z,18.15
2018-02-16T20:23:05.793Z,17.85
2018-02-16T20:25:33.212Z,18.53
2018-02-16T20:28:00.656Z,18.95
2018-02-16T20:30:28.112Z,17.27
2018-02-16T20:32:55.554Z,17.35
2018-02-16T20:35:22.976Z,18.90
2018-02-16T20:37:50.428Z,17.87
2018-02-16T20:40:17.850Z,17.50
2018-02-16T20:42:45.273Z,18.12
2018-02-16T20:45:12.709Z,17.70
2018-02-16T20:47:40.140Z,19.20
2018-02-16T20:50:07.562Z,18.42
2018-02-16T20:52:35.001Z,17.90
2018-02-16T20:55:08.272Z,19.93
2018-02-16T20:57:35.702Z,19.27
2018-02-16T21:00:03.125Z,16.90
2018-02-16T21:02:30.598Z,19.23
2018-02-16T21:04:58.002Z,23.10
2018-02-16T21:07:25.441Z,22.62
2018-02-16T21:09:52.860Z,22.80
2018-02-16T21:12:20.300Z,18.93
2018-02-16T21:14:47.715Z,19.30
2018-02-16T21:17:15.132Z,17.23
2018-02-16T21:19:42.611Z,17.80
2018-02-16T21:22:10.018Z,18.58
2018-02-16T21:24:37.444Z,16.90
2018-02-16T21:27:04.872Z,16.87
2018-02-16T21:29:32.297Z,17.42
2018-02-16T21:31:59.718Z,20.15
2018-02-16T21:34:27.153Z,18.62
2018-02-16T21:36:54.574Z,17.90
2018-02-16T21:39:22.000Z,17.17
2018-02-16T21:41:49.449Z,15.48
2018-02-16T21:44:16.878Z,17.55
2018-02-16T21:46:44.309Z,15.90
2018-02-16T21:49:11.741Z,17.90
2018-02-16T21:51:39.164Z,18.75
2018-02-16T21:54:06.613Z,17.55
2018-02-16T21:56:34.053Z,17.60
2018-02-16T21:59:01.481Z,19.00
2018-02-16T22:01:28.910Z,17.92
2018-02-16T22:03:56.350Z,18.17
2018-02-16T22:06:23.778Z,16.45
2018-02-16T22:08:51.185Z,19.30
2018-02-16T22:11:18.615Z,17.12
2018-02-16T22:13:46.041Z,17.70
2018-02-16T22:16:13.448Z,18.50
2018-02-16T22:18:40.908Z,18.40
2018-02-16T22:21:08.320Z,17.35
2018-02-16T22:23:35.736Z,17.92
2018-02-16T22:26:03.185Z,17.37
2018-02-16T22:28:30.668Z,17.25
2018-02-16T22:30:58.076Z,18.40
2018-02-16T22:33:25.548Z,17.25
2018-02-16T22:35:52.967Z,17.87
2018-02-16T22:38:20.397Z,19.23
2018-02-16T22:40:47.844Z,18.90
2018-02-16T22:43:15.290Z,19.17
2018-02-16T22:45:42.743Z,20.55
2018-02-16T22:48:10.177Z,21.27
2018-02-16T22:50:38.140Z,20.33
2018-02-16T22:53:05.556Z,20.50
2018-02-16T22:55:32.998Z,18.98
2018-02-16T22:58:00.424Z,19.62
2018-02-16T23:00:27.848Z,18.77
2018-02-16T23:02:55.298Z,20.33
2018-02-16T23:05:22.704Z,19.60
2018-02-16T23:07:50.121Z,20.70
2018-02-16T23:10:17.593Z,19.58
2018-02-16T23:12:45.002Z,19.87
2018-02-16T23:15:12.426Z,18.85
2018-02-16T23:17:39.860Z,18.92
2018-02-16T23:20:07.296Z,19.60
2018-02-16T23:22:34.708Z,18.85
2018-02-16T23:25:02.153Z,20.00
2018-02-16T23:27:29.596Z,20.67
2018-02-16T23:29:57.040Z,20.23
2018-02-16T23:32:36.678Z,21.40
2018-02-16T23:35:04.101Z,20.92
2018-02-16T23:37:31.549Z,20.95
2018-02-16T23:39:58.977Z,21.08
2018-02-16T23:42:26.370Z,19.15
2018-02-16T23:44:53.793Z,19.05
2018-02-16T23:47:21.232Z,19.23
2018-02-16T23:49:48.675Z,19.15
2018-02-16T23:52:16.084Z,19.55
2018-02-16T23:54:43.523Z,20.35
2018-02-16T23:57:10.946Z,22.33
2018-02-16T23:59:38.377Z,20.77
